首页
METAR-TAF:

METAR-TAF

机场 :

黑堡, 弗吉尼亚州, 美国

纬度: 37-13N, 经度: 080-25W, 海拔: 650米

当前天气观测

该预报发布于25分钟前的20:15 UTC
风速3节,风向西
温度 28°C
湿度 45%
气压 1020 hPa
能見度: 16.1公里
天空无云

METAR: KBCB 182015Z AUTO 27003KT 10SM CLR 28/15 A3013 RMK AO2 T02780152

时间: 16:40 (20:40 UTC)

预报

该预报发布于3小时和20分钟前的17:20 UTC
预报有效从18日的 18点(UTC)到 19日的 18点(UTC)
风速7节,风向西转西南
能見度: 10公里
少量云层高于6000英尺
从 18日的 2300点(UTC)
风速4节,风向南转西南
能見度: 10公里
少量云层高于6000英尺
散云层高于25000英尺
从 19日的 0700点(UTC)
风速5节,风向西
能見度: 10公里
散云层高于12000英尺
多云层高于25000英尺

TAF: KBCB 181720Z 1818/1918 25007KT P6SM FEW060 FM182300 21004KT P6SM FEW060 SCT250 FM190700 26005KT P6SM SCT120 BKN250

超过4000个机场的气象观测和天气预报(METAR&TAF报告)。

可查询的气象台以黄色和红色小点在地图上表示。

将鼠标移到小点上方,可查看气象台名称。

然后点击查看天气观测和预报。

如需切换地图:点击带黑十字的绿色按钮放大地图;点击带横线的绿色按钮缩小地图;或者点击绿色箭头查看邻近地区的地图。


METAR-TAF: